Hundvaag 1 weather for Mar 2011
Month no. 285
Obs.
Da.
Temp. Dew Point Precip. Wind
Speed
Wind gusts Cloud cover Press. Humidity Wind dir. Sunny OPT
01.03.2011 2,4 -0,6 0,0 3,2 3,2 0 1041,0 81,0 180,0   55,0 %
02.03.2011 3,2 0,4 0,0 1,6 4,8 1 1044,4 82,0 157,5   60,0 %
03.03.2011 2,4 0,4 1,0 0,0 0,0 0 1039,6 87,0     55,0 %
04.03.2011 2,4 0,4 0,0 0,0 0,0 0 1033,5 87,0     55,0 %
05.03.2011 2,7 -0,8 0,0 20,9 25,7 4 1028,1 78,0 315,0 1 55,0 %
06.03.2011 -1,1 -5,2 0,0 1,6 1,6 10 1034,5 74,0 315,0 1 77,5 %
07.03.2011 2,2 -0,4 0,0 11,3 11,3 0 1032,8 83,0 135,0   47,5 %
08.03.2011 3,5 0,6 0,0 16,1 14,5 0 1021,0 81,0 157,5   47,5 %
09.03.2011 3,1 1,3 1,5 11,3 11,3 4 996,6 88,0 157,5 1 60,0 %
10.03.2011 0,9 -0,9 0,0 3,2 3,2 1 993,2 88,0 157,5   57,5 %
11.03.2011 -0,6 -3,3 0,0 12,9 12,9 1 998,3 82,0 112,5 1 47,5 %
12.03.2011 1,3 -0,6 0,0 3,2 3,2 5 1006,1 87,0 180,0 1 67,5 %
13.03.2011 4,5 0,4 0,0 8,0 8,0 0 1004,7 75,0 45,0   52,5 %
14.03.2011 3,8 2,2 0,5 0,0 0,0 2 1016,9 89,0   1 62,5 %
15.03.2011 5,0 0,9 0,0 4,8 8,0 1 1028,8 75,0 90,0   60,0 %
16.03.2011 3,8 -9,6 0,0 20,9 24,1 3 1029,8 37,0 90,0 1 52,5 %
17.03.2011 2,1 -6,5 0,0 11,3 8,0 9 1020,3 53,0 90,0 1 70,0 %
18.03.2011 0,9 -1,2 0,0 1,6 3,2 0 1017,3 86,0 45,0 1 55,0 %
19.03.2011 2,4 0,3 0,0 8,0 8,0 10 1028,1 86,0 225,0 1 75,0 %
20.03.2011 4,4 1,4 0,0 14,5 14,5 0 1029,8 81,0 112,5 1 50,0 %
21.03.2011 6,9 5,2 2,5 1,6 3,2 0 1025,4 89,0 157,5   60,0 %
22.03.2011 6,5 4,3 1,5 11,3 12,9 0 1027,4 86,0 225,0 1 52,5 %
23.03.2011 4,3 2,7 0,0 1,6 4,8 0 1039,3 89,0 225,0 1 57,5 %
24.03.2011 5,9 4,7 0,0 11,3 14,5 0 1031,5 92,0 225,0 1 52,5 %
25.03.2011 1,8 -1,3 0,0 9,7 9,7 5 1021,3 80,0 292,5 1 62,5 %
26.03.2011 -0,2 -3,2 0,0 0,0 0,0 10 1021,3 80,0   1 77,5 %
27.03.2011 1,9 -1,2 0,0 8,0 8,0 0 1015,6 80,0 157,5 1 50,0 %
28.03.2011 2,1 0,0 0,0 4,8 4,8 6 1014,2 86,0 270,0 1 67,5 %
29.03.2011 4,9 3,1 0,5 16,1 4,8 1 1007,5 88,0 225,0 1 50,0 %
30.03.2011 0,2 -2,2 0,0 0,0 1,6 9 1015,6 84,0   1 77,5 %
31.03.2011 4,5 0,6 0,5 22,5 20,9 0 1008,8 76,0 67,5   42,5 %
Avrg/Sum 2,8 -0,3 8,0 7,8 8,1 2,6 1021,7 81,0 169,6 20 58,5 %